Samus Swan — 9HA2333 — position and weather

sailwx.info

Track history (hours):
 
Tides and Currents Weather Stations Pressure Air Temp Water Temp Dewpoint Dewpoint Depression Visibility Wind Speed Wind Dir Waves Ship Positions

Samus Swan

Last reported at 2016-May-21 08:33 UTC. Time now 2016-May-28 10:00 UTC.
Position N 29°24' W 094°49'.

Length 106 m; draft 5.1 m.

Type: Tanker. MMSI: 248363000.

Date/timePositionNaut miles runAvg speedWind from/ knotsBaromVisibWave heightAir tempDewpointWater temp
2016-May-21 08:33N 29°24' W 094°49'1212.0
2016-May-21 07:33N 29°34' W 094°55'1110.7
2016-May-21 06:33N 29°44' W 095°01'6 6.1
2016-May-21 05:33N 29°44' W 095°08'6 5.7
2016-May-21 04:33N 29°43' W 095°15'1 0.0
2016-May-19 19:24N 29°44' W 095°13'6 6.6
2016-May-19 18:28N 29°44' W 095°06'8 8.5
2016-May-19 17:33N 29°41' W 094°59'1313.2
2016-May-19 16:34N 29°29' W 094°52'11 0.3
2016-May-18 00:16N 29°21' W 094°44'911.7
2016-May-17 23:33N 29°27' W 094°51'1313.3
2016-May-17 22:33N 29°39' W 094°58'9 8.6
2016-May-17 21:33N 29°45' W 095°04'6 6.4
2016-May-17 20:32N 29°45' W 095°12'2 0.1
2016-May-16 04:09N 29°43' W 095°14'4 3.4
2016-May-16 03:06N 29°45' W 095°10'4 6.4
2016-May-16 02:29N 29°45' W 095°06'6 6.4
2016-May-16 01:32N 29°42' W 094°60'1110.9
2016-May-16 00:33N 29°32' W 094°54'1312.4
2016-May-15 23:32N 29°21' W 094°47'17 1.1
2016-May-15 08:12N 29°08' W 094°35'0 0.0
2016-May-15 07:30N 29°08' W 094°35'0 0.0
2016-May-15 06:30N 29°08' W 094°35'  
Track history (hours):
 
Tides and Currents Weather Stations Pressure Air Temp Water Temp Dewpoint Dewpoint Depression Visibility Wind Speed Wind Dir Waves Ship Positions

Samus Swan

Last reported at 2016-May-21 08:33 UTC. Time now 2016-May-28 10:00 UTC.
Position N 29°24' W 094°49'.

Length 106 m; draft 5.1 m.

Type: Tanker. MMSI: 248363000.

Date/timePositionNaut miles runAvg speedWind from/ knotsBaromVisibWave heightAir tempDewpointWater temp
2016-May-21 08:33N 29°24' W 094°49'1212.0
2016-May-21 07:33N 29°34' W 094°55'1110.7
2016-May-21 06:33N 29°44' W 095°01'6 6.1
2016-May-21 05:33N 29°44' W 095°08'6 5.7
2016-May-21 04:33N 29°43' W 095°15'1 0.0
2016-May-19 19:24N 29°44' W 095°13'6 6.6
2016-May-19 18:28N 29°44' W 095°06'8 8.5
2016-May-19 17:33N 29°41' W 094°59'1313.2
2016-May-19 16:34N 29°29' W 094°52'11 0.3
2016-May-18 00:16N 29°21' W 094°44'911.7
2016-May-17 23:33N 29°27' W 094°51'1313.3
2016-May-17 22:33N 29°39' W 094°58'9 8.6
2016-May-17 21:33N 29°45' W 095°04'6 6.4
2016-May-17 20:32N 29°45' W 095°12'2 0.1
2016-May-16 04:09N 29°43' W 095°14'4 3.4
2016-May-16 03:06N 29°45' W 095°10'4 6.4
2016-May-16 02:29N 29°45' W 095°06'6 6.4
2016-May-16 01:32N 29°42' W 094°60'1110.9
2016-May-16 00:33N 29°32' W 094°54'1312.4
2016-May-15 23:32N 29°21' W 094°47'17 1.1
2016-May-15 08:12N 29°08' W 094°35'0 0.0
2016-May-15 07:30N 29°08' W 094°35'0 0.0
2016-May-15 06:30N 29°08' W 094°35'  

Dump ship's entire track history